createdAt,value
2019-04-06T00:00:54.895Z,1.50
2019-04-06T00:01:54.818Z,1.30
2019-04-06T00:02:54.763Z,1.80
2019-04-06T00:03:54.689Z,1.50
2019-04-06T00:04:54.597Z,1.50
2019-04-06T00:05:54.563Z,1.30
2019-04-06T00:06:54.451Z,1.30
2019-04-06T00:07:54.399Z,1.50
2019-04-06T00:08:54.308Z,1.30
2019-04-06T00:09:54.243Z,1.40
2019-04-06T00:10:55.286Z,1.30
2019-04-06T00:11:54.099Z,1.20
2019-04-06T00:12:54.014Z,1.30
2019-04-06T00:13:53.940Z,1.30
2019-04-06T00:14:53.862Z,1.40
2019-04-06T00:15:53.788Z,1.40
2019-04-06T00:16:53.735Z,1.50
2019-04-06T00:17:53.657Z,1.20
2019-04-06T00:18:53.570Z,1.50
2019-04-06T00:19:53.494Z,1.50
2019-04-06T00:20:53.432Z,1.40
2019-04-06T00:21:53.365Z,1.40
2019-04-06T00:22:53.287Z,1.40
2019-04-06T00:23:53.208Z,1.60
2019-04-06T00:24:53.128Z,1.80
2019-04-06T00:25:53.064Z,1.60
2019-04-06T00:26:52.997Z,1.60
2019-04-06T00:27:52.914Z,1.60
2019-04-06T00:28:52.830Z,1.30
2019-04-06T00:29:52.761Z,1.40
2019-04-06T00:30:52.688Z,1.30
2019-04-06T00:31:52.657Z,1.20
2019-04-06T00:32:52.546Z,1.30
2019-04-06T00:33:52.527Z,1.30
2019-04-06T00:34:52.452Z,1.40
2019-04-06T00:35:52.323Z,1.30
2019-04-06T00:36:52.260Z,1.40
2019-04-06T00:37:52.184Z,1.30
2019-04-06T00:38:52.116Z,1.30
2019-04-06T00:39:52.036Z,1.30
2019-04-06T00:40:52.019Z,1.40
2019-04-06T00:41:51.879Z,1.20
2019-04-06T00:42:51.832Z,1.10
2019-04-06T00:43:51.761Z,1.40
2019-04-06T00:44:51.670Z,1.20
2019-04-06T00:45:51.599Z,1.30
2019-04-06T00:46:51.524Z,1.20
2019-04-06T00:47:51.459Z,1.20
2019-04-06T00:48:51.369Z,1.10
2019-04-06T00:49:51.292Z,1.10
2019-04-06T00:50:51.233Z,1.20
2019-04-06T00:51:51.157Z,1.10
2019-04-06T00:52:51.075Z,1.10
2019-04-06T00:53:51.004Z,1.00
2019-04-06T00:54:50.927Z,1.00
2019-04-06T00:55:55.976Z,1.10
2019-04-06T00:56:50.792Z,1.10
2019-04-06T00:57:50.728Z,1.00
2019-04-06T00:58:50.645Z,1.00
2019-04-06T00:59:50.577Z,1.20
2019-04-06T01:00:50.535Z,1.00
2019-04-06T01:01:50.417Z,1.00
2019-04-06T01:02:50.344Z,1.00
2019-04-06T01:03:50.278Z,1.50
2019-04-06T01:04:50.204Z,1.20
2019-04-06T01:05:50.202Z,0.90
2019-04-06T01:06:50.056Z,1.10
2019-04-06T01:07:49.983Z,1.00
2019-04-06T01:08:49.917Z,0.90
2019-04-06T01:09:49.847Z,0.90
2019-04-06T01:10:49.772Z,1.10
2019-04-06T01:11:49.698Z,0.80
2019-04-06T01:12:49.617Z,0.80
2019-04-06T01:13:49.541Z,0.80
2019-04-06T01:14:49.472Z,0.90
2019-04-06T01:15:49.397Z,0.90
2019-04-06T01:16:49.333Z,0.90
2019-04-06T01:17:49.258Z,0.80
2019-04-06T01:18:49.194Z,0.70
2019-04-06T01:19:49.121Z,0.80
2019-04-06T01:20:49.035Z,1.00
2019-04-06T01:21:48.959Z,0.90
2019-04-06T01:22:48.907Z,0.80
2019-04-06T01:23:48.826Z,0.90
2019-04-06T01:24:48.841Z,0.70
2019-04-06T01:25:48.669Z,0.80
2019-04-06T01:26:48.597Z,0.70
2019-04-06T01:27:48.524Z,0.90
2019-04-06T01:28:48.459Z,0.80
2019-04-06T01:29:48.386Z,0.80
2019-04-06T01:30:48.343Z,0.70
2019-04-06T01:31:48.235Z,0.80
2019-04-06T01:32:48.205Z,0.70
2019-04-06T01:33:48.101Z,0.80
2019-04-06T01:34:48.025Z,0.80
2019-04-06T01:35:47.954Z,0.80
2019-04-06T01:36:47.870Z,0.80
2019-04-06T01:37:47.795Z,0.70
2019-04-06T01:38:47.735Z,0.80
2019-04-06T01:39:47.660Z,0.80
2019-04-06T01:40:47.573Z,0.80
2019-04-06T01:41:47.505Z,1.30
2019-04-06T01:42:47.429Z,1.10
2019-04-06T01:43:47.363Z,0.90
2019-04-06T01:44:47.296Z,0.90
2019-04-06T01:45:47.221Z,0.90
2019-04-06T01:46:47.151Z,1.10
2019-04-06T01:47:47.073Z,1.00
2019-04-06T01:48:46.993Z,1.10
2019-04-06T01:49:46.917Z,1.20
2019-04-06T01:50:46.845Z,1.00
2019-04-06T01:51:46.776Z,1.10
2019-04-06T01:52:46.710Z,1.00
2019-04-06T01:53:46.636Z,1.10
2019-04-06T01:54:46.604Z,0.90
2019-04-06T01:55:46.481Z,1.10
2019-04-06T01:56:46.417Z,0.90
2019-04-06T01:57:46.359Z,1.00
2019-04-06T01:58:46.385Z,0.90
2019-04-06T01:59:46.200Z,0.90
2019-04-06T02:00:46.118Z,1.20
2019-04-06T02:01:46.043Z,1.10
2019-04-06T02:02:46.024Z,1.20
2019-04-06T02:03:45.915Z,1.10
2019-04-06T02:04:45.825Z,1.10
2019-04-06T02:05:45.751Z,1.10
2019-04-06T02:06:45.679Z,1.00
2019-04-06T02:07:45.610Z,1.00
2019-04-06T02:08:45.540Z,1.30
2019-04-06T02:09:45.470Z,1.10
2019-04-06T02:10:45.392Z,1.40
2019-04-06T02:11:45.315Z,1.40
2019-04-06T02:12:45.247Z,1.30
2019-04-06T02:13:45.171Z,1.30
2019-04-06T02:14:45.099Z,1.00
2019-04-06T02:15:45.032Z,1.10
2019-04-06T02:16:44.941Z,1.10
2019-04-06T02:17:44.867Z,1.10
2019-04-06T02:18:44.799Z,1.20
2019-04-06T02:19:44.723Z,1.10
2019-04-06T02:20:44.656Z,1.10
2019-04-06T02:21:44.588Z,1.00
2019-04-06T02:22:44.514Z,1.20
2019-04-06T02:23:44.439Z,1.10
2019-04-06T02:24:44.355Z,1.10
2019-04-06T02:25:44.285Z,1.00
2019-04-06T02:26:44.222Z,1.20
2019-04-06T02:27:44.178Z,1.00
2019-04-06T02:28:44.076Z,1.00
2019-04-06T02:29:43.993Z,1.30
2019-04-06T02:30:43.918Z,1.10
2019-04-06T02:31:43.849Z,0.90
2019-04-06T02:32:43.783Z,1.00
2019-04-06T02:33:43.740Z,0.90
2019-04-06T02:34:43.624Z,1.00
2019-04-06T02:35:43.553Z,1.10
2019-04-06T02:36:43.507Z,1.10
2019-04-06T02:37:43.417Z,1.30
2019-04-06T02:38:43.348Z,1.30
2019-04-06T02:39:43.277Z,1.20
2019-04-06T02:40:43.312Z,1.10
2019-04-06T02:41:43.124Z,1.80
2019-04-06T02:42:43.051Z,1.40
2019-04-06T02:43:42.982Z,1.30
2019-04-06T02:44:42.897Z,1.00
2019-04-06T02:45:42.831Z,1.20
2019-04-06T02:46:42.755Z,1.10
2019-04-06T02:47:42.796Z,0.90
2019-04-06T02:48:42.611Z,0.90
2019-04-06T02:49:42.544Z,1.20
2019-04-06T02:50:42.467Z,1.00
2019-04-06T02:51:42.390Z,1.00
2019-04-06T02:52:42.326Z,1.10
2019-04-06T02:53:42.235Z,1.30
2019-04-06T02:54:42.171Z,1.20
2019-04-06T02:55:42.093Z,1.20
2019-04-06T02:56:46.271Z,0.90
2019-04-06T02:57:41.956Z,1.20
2019-04-06T02:58:41.892Z,1.10
2019-04-06T02:59:41.805Z,1.10
2019-04-06T03:00:41.735Z,1.10
2019-04-06T03:01:41.733Z,1.10
2019-04-06T03:02:41.587Z,1.00
2019-04-06T03:03:41.591Z,1.10
2019-04-06T03:04:41.432Z,1.10
2019-04-06T03:05:41.373Z,1.10
2019-04-06T03:06:41.293Z,0.90
2019-04-06T03:07:41.323Z,0.90
2019-04-06T03:08:41.367Z,1.10
2019-04-06T03:09:41.080Z,1.20
2019-04-06T03:10:41.064Z,1.10
2019-04-06T03:11:40.929Z,1.00
2019-04-06T03:12:40.850Z,1.10
2019-04-06T03:13:40.773Z,1.00
2019-04-06T03:14:44.041Z,0.80
2019-04-06T03:15:40.650Z,1.00
2019-04-06T03:16:40.656Z,0.90
2019-04-06T03:17:40.530Z,1.30
2019-04-06T03:18:40.418Z,1.10
2019-04-06T03:19:40.336Z,1.30
2019-04-06T03:20:40.276Z,1.10
2019-04-06T03:21:40.260Z,0.90
2019-04-06T03:22:40.126Z,1.00
2019-04-06T03:23:50.533Z,0.90
2019-04-06T03:24:40.237Z,0.60
2019-04-06T03:25:39.920Z,0.90
2019-04-06T03:26:39.977Z,0.90
2019-04-06T03:27:39.757Z,0.80
2019-04-06T03:28:39.688Z,0.60
2019-04-06T03:29:39.615Z,0.70
2019-04-06T03:30:39.530Z,0.70
2019-04-06T03:31:39.529Z,0.70
2019-04-06T03:32:39.505Z,0.70
2019-04-06T03:33:39.352Z,0.70
2019-04-06T03:34:39.275Z,0.90
2019-04-06T03:35:45.974Z,0.70
2019-04-06T03:36:39.093Z,0.80
2019-04-06T03:37:39.020Z,0.90
2019-04-06T03:38:38.959Z,1.00
2019-04-06T03:39:39.054Z,1.00
2019-04-06T03:40:38.806Z,0.80
2019-04-06T03:41:38.723Z,0.90
2019-04-06T03:42:38.654Z,1.00
2019-04-06T03:43:38.580Z,0.70
2019-04-06T03:44:38.729Z,0.70
2019-04-06T03:45:38.446Z,0.70
2019-04-06T03:46:38.418Z,0.80
2019-04-06T03:47:38.316Z,0.70
2019-04-06T03:48:38.224Z,0.80
2019-04-06T03:49:38.154Z,0.70
2019-04-06T03:50:38.076Z,0.80
2019-04-06T03:51:37.997Z,0.90
2019-04-06T03:52:37.920Z,0.90
2019-04-06T03:53:37.960Z,0.80
2019-04-06T03:54:37.775Z,0.60
2019-04-06T03:55:37.873Z,1.00
2019-04-06T03:56:37.638Z,0.90
2019-04-06T03:57:37.569Z,1.00
2019-04-06T03:58:37.535Z,1.00
2019-04-06T03:59:37.429Z,1.00
2019-04-06T04:00:37.334Z,0.90
2019-04-06T04:01:37.306Z,0.80
2019-04-06T04:02:37.343Z,0.80
2019-04-06T04:03:37.115Z,1.00
2019-04-06T04:04:37.045Z,0.80
2019-04-06T04:05:37.117Z,0.80
2019-04-06T04:06:36.896Z,0.90
2019-04-06T04:07:36.837Z,0.90
2019-04-06T04:08:36.763Z,0.70
2019-04-06T04:09:36.690Z,0.90
2019-04-06T04:10:36.614Z,0.80
2019-04-06T04:11:36.528Z,0.80
2019-04-06T04:12:36.453Z,0.80
2019-04-06T04:13:36.740Z,0.80
2019-04-06T04:14:36.316Z,0.60
2019-04-06T04:15:36.254Z,0.80
2019-04-06T04:16:36.396Z,0.60
2019-04-06T04:17:36.097Z,0.70
2019-04-06T04:18:36.016Z,0.70
2019-04-06T04:19:35.953Z,0.90
2019-04-06T04:20:35.889Z,0.90
2019-04-06T04:21:35.830Z,0.80
2019-04-06T04:22:35.739Z,0.70
2019-04-06T04:23:35.652Z,0.80
2019-04-06T04:24:35.578Z,0.70
2019-04-06T04:25:35.621Z,0.80
2019-04-06T04:26:35.435Z,0.90
2019-04-06T04:27:35.443Z,0.70
2019-04-06T04:28:35.305Z,0.90
2019-04-06T04:29:35.241Z,0.80
2019-04-06T04:30:35.293Z,0.80
2019-04-06T04:31:35.071Z,0.80
2019-04-06T04:32:34.996Z,0.80
2019-04-06T04:33:34.939Z,0.70
2019-04-06T04:34:34.857Z,0.80
2019-04-06T04:35:34.776Z,0.70
2019-04-06T04:36:34.773Z,0.80
2019-04-06T04:37:34.631Z,1.00
2019-04-06T04:38:34.557Z,0.80
2019-04-06T04:39:34.606Z,0.90
2019-04-06T04:40:34.498Z,0.80
2019-04-06T04:41:34.340Z,0.70
2019-04-06T04:42:34.405Z,1.00
2019-04-06T04:43:34.504Z,0.80
2019-04-06T04:44:34.135Z,0.70
2019-04-06T04:45:34.074Z,0.90
2019-04-06T04:46:34.169Z,0.80
2019-04-06T04:47:33.903Z,1.00
2019-04-06T04:48:33.828Z,0.80
2019-04-06T04:49:33.766Z,0.90
2019-04-06T04:50:33.695Z,0.90
2019-04-06T04:51:33.606Z,0.80
2019-04-06T04:52:33.530Z,0.90
2019-04-06T04:53:33.460Z,0.80
2019-04-06T04:54:33.393Z,0.60
2019-04-06T04:55:33.389Z,0.90
2019-04-06T04:56:33.254Z,0.90
2019-04-06T04:57:40.091Z,0.90
2019-04-06T04:58:33.108Z,0.80
2019-04-06T04:59:33.021Z,0.90
2019-04-06T05:00:32.952Z,0.80
2019-04-06T05:01:32.885Z,0.90
2019-04-06T05:02:32.853Z,0.90
2019-04-06T05:03:32.749Z,0.80
2019-04-06T05:04:32.667Z,0.80
2019-04-06T05:05:32.581Z,0.90
2019-04-06T05:06:32.513Z,0.70
2019-04-06T05:07:32.452Z,0.70
2019-04-06T05:08:32.372Z,1.00
2019-04-06T05:09:32.460Z,1.00
2019-04-06T05:10:32.234Z,0.80
2019-04-06T05:11:32.145Z,0.90
2019-04-06T05:12:32.073Z,0.90
2019-04-06T05:13:31.997Z,0.90
2019-04-06T05:14:31.930Z,0.80
2019-04-06T05:15:31.875Z,0.80
2019-04-06T05:16:31.790Z,0.70
2019-04-06T05:17:31.723Z,0.60
2019-04-06T05:18:31.649Z,0.70
2019-04-06T05:19:31.558Z,0.70
2019-04-06T05:20:31.489Z,0.80
2019-04-06T05:21:31.430Z,0.70
2019-04-06T05:22:31.514Z,0.70
2019-04-06T05:23:31.273Z,0.90
2019-04-06T05:24:31.199Z,0.80
2019-04-06T05:25:31.125Z,0.90
2019-04-06T05:26:37.489Z,0.90
2019-04-06T05:27:30.990Z,0.70
2019-04-06T05:28:31.211Z,0.90
2019-04-06T05:29:33.055Z,0.80
2019-04-06T05:30:30.872Z,0.80
2019-04-06T05:31:30.691Z,1.00
2019-04-06T05:32:30.621Z,0.90
2019-04-06T05:33:30.543Z,0.90
2019-04-06T05:34:30.467Z,0.90
2019-04-06T05:35:30.431Z,0.80
2019-04-06T05:36:30.332Z,0.60
2019-04-06T05:37:30.363Z,0.90
2019-04-06T05:38:30.179Z,0.70
2019-04-06T05:39:30.234Z,0.90
2019-04-06T05:40:30.047Z,1.00
2019-04-06T05:41:29.968Z,0.70
2019-04-06T05:42:29.895Z,0.90
2019-04-06T05:43:29.815Z,1.00
2019-04-06T05:44:29.749Z,0.80
2019-04-06T05:45:29.679Z,1.00
2019-04-06T05:46:29.803Z,0.80
2019-04-06T05:47:29.523Z,1.00
2019-04-06T05:48:29.453Z,0.90
2019-04-06T05:49:29.532Z,0.90
2019-04-06T05:50:29.300Z,1.10
2019-04-06T05:51:29.388Z,1.10
2019-04-06T05:52:29.201Z,0.90
2019-04-06T05:53:29.244Z,1.00
2019-04-06T05:54:29.012Z,1.00
2019-04-06T05:55:28.952Z,0.90
2019-04-06T05:56:28.876Z,0.80
2019-04-06T05:57:31.592Z,1.00
2019-04-06T05:58:28.737Z,1.00
2019-04-06T05:59:28.645Z,0.90
2019-04-06T06:00:28.862Z,0.90
2019-04-06T06:01:28.658Z,1.20
2019-04-06T06:02:28.431Z,1.20
2019-04-06T06:03:28.368Z,1.10
2019-04-06T06:04:28.292Z,1.10
2019-04-06T06:05:28.226Z,1.00
2019-04-06T06:06:28.374Z,1.20
2019-04-06T06:07:28.069Z,1.00
2019-04-06T06:08:30.394Z,1.20
2019-04-06T06:09:27.931Z,1.10
2019-04-06T06:10:27.857Z,1.20
2019-04-06T06:11:27.821Z,1.30
2019-04-06T06:12:27.698Z,1.20
2019-04-06T06:13:27.629Z,1.10
2019-04-06T06:14:27.624Z,1.30
2019-04-06T06:15:27.492Z,1.20
2019-04-06T06:16:27.417Z,1.30
2019-04-06T06:17:27.340Z,1.10
2019-04-06T06:18:27.730Z,1.20
2019-04-06T06:19:27.242Z,1.30
2019-04-06T06:20:27.134Z,1.30
2019-04-06T06:21:27.056Z,1.40
2019-04-06T06:22:27.024Z,1.50
2019-04-06T06:23:26.897Z,1.40
2019-04-06T06:24:26.830Z,1.40
2019-04-06T06:25:26.770Z,1.30
2019-04-06T06:26:26.826Z,1.30
2019-04-06T06:27:26.609Z,1.20
2019-04-06T06:28:26.537Z,1.20
2019-04-06T06:29:26.472Z,1.10
2019-04-06T06:30:26.387Z,1.30
2019-04-06T06:31:26.331Z,1.30
2019-04-06T06:32:26.259Z,1.30
2019-04-06T06:33:26.178Z,1.40
2019-04-06T06:34:26.123Z,1.10
2019-04-06T06:35:26.031Z,1.20
2019-04-06T06:36:25.956Z,1.30
2019-04-06T06:37:25.875Z,1.20
2019-04-06T06:38:25.803Z,1.00
2019-04-06T06:39:25.753Z,1.30
2019-04-06T06:40:25.674Z,1.30
2019-04-06T06:41:25.592Z,1.60
2019-04-06T06:42:25.515Z,1.40
2019-04-06T06:43:25.596Z,1.30
2019-04-06T06:44:25.577Z,1.20
2019-04-06T06:45:25.307Z,1.20
2019-04-06T06:46:25.235Z,1.30
2019-04-06T06:47:25.191Z,1.40
2019-04-06T06:48:25.073Z,1.40
2019-04-06T06:49:25.014Z,1.30
2019-04-06T06:50:24.945Z,1.20
2019-04-06T06:51:24.857Z,1.30
2019-04-06T06:52:24.789Z,1.50
2019-04-06T06:53:24.709Z,1.30
2019-04-06T06:54:24.641Z,1.30
2019-04-06T06:55:26.608Z,1.30
2019-04-06T06:56:24.512Z,1.50
2019-04-06T06:57:24.421Z,1.50
2019-04-06T06:58:25.847Z,1.30
2019-04-06T06:59:24.506Z,1.50
2019-04-06T07:00:24.215Z,1.50
2019-04-06T07:01:24.158Z,1.60
2019-04-06T07:02:24.080Z,1.60
2019-04-06T07:03:23.994Z,1.40
2019-04-06T07:04:23.975Z,1.50
2019-04-06T07:05:23.843Z,1.60
2019-04-06T07:06:23.767Z,1.40
2019-04-06T07:07:23.711Z,1.30
2019-04-06T07:08:23.682Z,1.40
2019-04-06T07:09:23.568Z,1.40
2019-04-06T07:10:23.496Z,1.40
2019-04-06T07:11:23.419Z,1.30
2019-04-06T07:12:23.406Z,1.40
2019-04-06T07:13:23.277Z,1.70
2019-04-06T07:14:23.204Z,1.60
2019-04-06T07:15:23.119Z,1.30
2019-04-06T07:16:23.045Z,1.70
2019-04-06T07:17:22.971Z,1.30
2019-04-06T07:18:22.902Z,1.50
2019-04-06T07:19:22.857Z,1.50
2019-04-06T07:20:22.767Z,1.50
2019-04-06T07:21:22.696Z,1.40
2019-04-06T07:22:22.628Z,1.50
2019-04-06T07:23:22.543Z,1.50
2019-04-06T07:24:22.467Z,1.60
2019-04-06T07:25:22.559Z,1.50
2019-04-06T07:26:22.321Z,1.30
2019-04-06T07:27:22.425Z,1.50
2019-04-06T07:28:22.293Z,1.40
2019-04-06T07:29:22.107Z,1.50
2019-04-06T07:30:22.048Z,1.60
2019-04-06T07:31:21.979Z,1.50
2019-04-06T07:32:21.906Z,1.80
2019-04-06T07:33:21.829Z,1.70
2019-04-06T07:34:21.778Z,1.60
2019-04-06T07:35:21.692Z,1.60
2019-04-06T07:36:21.605Z,1.60
2019-04-06T07:37:21.580Z,1.50
2019-04-06T07:38:21.462Z,2.10
2019-04-06T07:39:23.355Z,2.20
2019-04-06T07:40:21.326Z,2.00
2019-04-06T07:41:21.262Z,2.40
2019-04-06T07:42:21.460Z,2.00
2019-04-06T07:43:21.107Z,1.90
2019-04-06T07:44:21.047Z,1.90
2019-04-06T07:45:20.977Z,1.70
2019-04-06T07:46:20.904Z,1.70
2019-04-06T07:47:20.821Z,1.70
2019-04-06T07:48:20.907Z,1.90
2019-04-06T07:49:20.675Z,2.00
2019-04-06T07:50:20.603Z,1.80
2019-04-06T07:51:20.551Z,1.70
2019-04-06T07:52:20.476Z,1.70
2019-04-06T07:53:20.514Z,1.80
2019-04-06T07:54:20.319Z,1.80
2019-04-06T07:55:20.268Z,1.80
2019-04-06T07:56:20.706Z,2.50
2019-04-06T07:57:20.126Z,1.80
2019-04-06T07:58:20.059Z,1.90
2019-04-06T07:59:20.163Z,1.80
2019-04-06T08:00:19.903Z,1.90
2019-04-06T08:01:19.849Z,1.50
2019-04-06T08:02:19.781Z,1.60
2019-04-06T08:03:19.695Z,1.40
2019-04-06T08:04:19.624Z,1.30
2019-04-06T08:05:19.551Z,1.20
2019-04-06T08:06:19.477Z,1.40
2019-04-06T08:07:19.424Z,1.30
2019-04-06T08:08:19.349Z,1.10
2019-04-06T08:09:19.287Z,1.10
2019-04-06T08:10:19.212Z,0.80
2019-04-06T08:11:19.180Z,0.80
2019-04-06T08:12:19.059Z,0.70
2019-04-06T08:13:18.993Z,1.00
2019-04-06T08:14:18.923Z,0.90
2019-04-06T08:15:18.871Z,0.90
2019-04-06T08:16:19.075Z,0.90
2019-04-06T08:17:18.712Z,0.80
2019-04-06T08:18:18.645Z,1.20
2019-04-06T08:19:18.594Z,1.00
2019-04-06T08:20:18.514Z,1.20
2019-04-06T08:21:19.708Z,1.10
2019-04-06T08:22:18.384Z,1.30
2019-04-06T08:23:18.299Z,1.30
2019-04-06T08:24:18.305Z,1.20
2019-04-06T08:25:18.178Z,1.20
2019-04-06T08:26:18.099Z,1.20
2019-04-06T08:27:18.025Z,1.20
2019-04-06T08:28:17.963Z,1.40
2019-04-06T08:29:17.883Z,1.20
2019-04-06T08:30:18.037Z,1.50
2019-04-06T08:31:17.759Z,1.20
2019-04-06T08:32:17.690Z,1.10
2019-04-06T08:33:17.605Z,1.20
2019-04-06T08:34:17.539Z,0.90
2019-04-06T08:35:25.084Z,0.90
2019-04-06T08:36:17.419Z,1.00
2019-04-06T08:37:17.338Z,0.80
2019-04-06T08:38:17.276Z,0.90
2019-04-06T08:39:17.193Z,0.70
2019-04-06T08:40:17.129Z,1.10
2019-04-06T08:41:17.112Z,0.90
2019-04-06T08:42:16.987Z,0.90
2019-04-06T08:43:16.934Z,1.10
2019-04-06T08:44:16.861Z,1.10
2019-04-06T08:45:16.788Z,1.30
2019-04-06T08:46:16.724Z,1.00
2019-04-06T08:47:16.640Z,1.00
2019-04-06T08:48:16.572Z,1.00
2019-04-06T08:49:16.752Z,0.80
2019-04-06T08:50:16.451Z,1.00
2019-04-06T08:51:16.590Z,0.70
2019-04-06T08:52:16.504Z,1.00
2019-04-06T08:53:16.312Z,0.70
2019-04-06T08:54:16.383Z,1.00
2019-04-06T08:55:16.108Z,1.00
2019-04-06T08:56:16.036Z,1.30
2019-04-06T08:57:15.961Z,1.20
2019-04-06T08:58:15.883Z,1.20
2019-04-06T08:59:15.952Z,1.10
2019-04-06T09:00:15.773Z,1.00
2019-04-06T09:01:15.686Z,1.50
2019-04-06T09:02:15.622Z,1.30
2019-04-06T09:03:15.540Z,1.10
2019-04-06T09:04:15.496Z,1.20
2019-04-06T09:05:15.412Z,1.20
2019-04-06T09:06:15.348Z,1.20
2019-04-06T09:07:15.263Z,1.30
2019-04-06T09:08:15.195Z,1.40
2019-04-06T09:09:15.199Z,1.20
2019-04-06T09:10:15.057Z,1.30
2019-04-06T09:11:15.001Z,1.30
2019-04-06T09:12:15.086Z,1.10
2019-04-06T09:13:14.862Z,1.40
2019-04-06T09:14:14.796Z,1.30
2019-04-06T09:15:14.724Z,1.20
2019-04-06T09:16:14.643Z,1.20
2019-04-06T09:17:14.579Z,0.90
2019-04-06T09:18:14.508Z,0.90
2019-04-06T09:19:14.455Z,1.20
2019-04-06T09:20:14.373Z,1.20
2019-04-06T09:21:14.293Z,1.10
2019-04-06T09:22:14.227Z,1.30
2019-04-06T09:23:14.383Z,1.20
2019-04-06T09:24:14.274Z,1.50
2019-04-06T09:25:14.031Z,1.70
2019-04-06T09:26:14.129Z,1.50
2019-04-06T09:27:13.880Z,1.30
2019-04-06T09:28:14.013Z,1.30
2019-04-06T09:29:23.066Z,1.20
2019-04-06T09:30:13.671Z,1.50
2019-04-06T09:31:13.617Z,1.90
2019-04-06T09:32:13.550Z,1.50
2019-04-06T09:33:13.474Z,1.40
2019-04-06T09:34:13.414Z,1.40
2019-04-06T09:35:13.332Z,1.50
2019-04-06T09:36:13.259Z,1.30
2019-04-06T09:37:13.216Z,1.40
2019-04-06T09:38:13.128Z,1.30
2019-04-06T09:39:13.047Z,1.30
2019-04-06T09:40:12.984Z,1.50
2019-04-06T09:41:12.913Z,1.20
2019-04-06T09:42:12.841Z,1.20
2019-04-06T09:43:13.291Z,1.20
2019-04-06T09:44:12.812Z,1.10
2019-04-06T09:45:12.651Z,1.20
2019-04-06T09:46:12.580Z,1.20
2019-04-06T09:47:12.503Z,1.50
2019-04-06T09:48:12.439Z,0.80
2019-04-06T09:49:12.390Z,1.00
2019-04-06T09:50:12.294Z,1.10
2019-04-06T09:51:12.230Z,0.80
2019-04-06T09:52:12.259Z,1.00
2019-04-06T09:53:12.085Z,1.10
2019-04-06T09:54:12.012Z,0.90
2019-04-06T09:55:12.000Z,0.80
2019-04-06T09:56:11.924Z,0.80
2019-04-06T09:57:11.831Z,0.60
2019-04-06T09:58:11.761Z,0.80
2019-04-06T09:59:11.674Z,0.80
2019-04-06T10:00:11.606Z,1.10
2019-04-06T10:01:11.545Z,0.50
2019-04-06T10:02:11.481Z,0.90
2019-04-06T10:03:11.405Z,0.70
2019-04-06T10:04:11.330Z,0.60
2019-04-06T10:05:11.259Z,0.80
2019-04-06T10:06:11.199Z,0.80
2019-04-06T10:07:11.138Z,0.70
2019-04-06T10:08:11.281Z,0.80
2019-04-06T10:09:10.986Z,0.70
2019-04-06T10:10:10.918Z,1.00
2019-04-06T10:11:10.863Z,0.80
2019-04-06T10:12:10.793Z,0.70
2019-04-06T10:13:10.951Z,0.70
2019-04-06T10:14:10.663Z,0.60
2019-04-06T10:15:10.590Z,0.80
2019-04-06T10:16:10.510Z,0.70
2019-04-06T10:17:10.445Z,0.50
2019-04-06T10:18:10.633Z,0.60
2019-04-06T10:19:10.314Z,0.50
2019-04-06T10:20:10.246Z,0.60
2019-04-06T10:21:10.181Z,0.70
2019-04-06T10:22:10.113Z,0.70
2019-04-06T10:23:10.030Z,0.80
2019-04-06T10:24:09.964Z,0.70
2019-04-06T10:25:11.322Z,0.80
2019-04-06T10:26:09.839Z,0.80
2019-04-06T10:27:09.768Z,0.90
2019-04-06T10:28:09.724Z,0.70
2019-04-06T10:29:09.626Z,0.80
2019-04-06T10:30:09.554Z,1.00
2019-04-06T10:31:09.507Z,0.90
2019-04-06T10:32:09.434Z,0.80
2019-04-06T10:33:09.350Z,0.50
2019-04-06T10:34:09.310Z,0.70
2019-04-06T10:35:09.293Z,0.60
2019-04-06T10:36:09.168Z,0.60
2019-04-06T10:37:09.091Z,0.50
2019-04-06T10:38:09.091Z,0.50
2019-04-06T10:39:08.943Z,0.80
2019-04-06T10:40:08.884Z,0.70
2019-04-06T10:41:08.831Z,0.80
2019-04-06T10:42:08.751Z,0.60
2019-04-06T10:43:08.701Z,0.60
2019-04-06T10:44:08.601Z,0.50
2019-04-06T10:45:08.533Z,0.60
2019-04-06T10:46:08.467Z,0.80
2019-04-06T10:47:08.418Z,0.60
2019-04-06T10:48:08.549Z,0.70
2019-04-06T10:49:08.285Z,0.90
2019-04-06T10:50:08.202Z,0.60
2019-04-06T10:51:08.310Z,0.50
2019-04-06T10:52:08.196Z,0.60
2019-04-06T10:53:07.982Z,0.60
2019-04-06T10:54:07.918Z,0.70
2019-04-06T10:55:08.207Z,0.60
2019-04-06T10:56:08.078Z,0.70
2019-04-06T10:57:07.801Z,0.50
2019-04-06T10:58:07.669Z,0.60
2019-04-06T10:59:07.585Z,0.50
2019-04-06T11:00:07.515Z,0.40
2019-04-06T11:01:07.467Z,0.50
2019-04-06T11:02:07.381Z,0.50
2019-04-06T11:03:07.296Z,0.60
2019-04-06T11:04:07.226Z,0.50
2019-04-06T11:05:07.169Z,0.40
2019-04-06T11:06:07.109Z,0.60
2019-04-06T11:07:07.024Z,0.60
2019-04-06T11:08:07.047Z,0.50
2019-04-06T11:09:06.895Z,0.70
2019-04-06T11:10:06.821Z,0.70
2019-04-06T11:11:06.760Z,0.80
2019-04-06T11:12:06.707Z,0.70
2019-04-06T11:13:06.617Z,0.60
2019-04-06T11:14:06.544Z,0.60
2019-04-06T11:15:06.487Z,0.70
2019-04-06T11:16:06.415Z,0.80
2019-04-06T11:17:06.346Z,0.70
2019-04-06T11:18:06.284Z,0.60
2019-04-06T11:19:06.200Z,0.80
2019-04-06T11:20:06.142Z,0.70
2019-04-06T11:21:06.065Z,0.80
2019-04-06T11:22:05.996Z,0.70
2019-04-06T11:23:05.940Z,0.70
2019-04-06T11:24:06.157Z,0.70
2019-04-06T11:25:06.003Z,0.60
2019-04-06T11:26:06.008Z,0.70
2019-04-06T11:27:05.904Z,0.70
2019-04-06T11:28:05.585Z,0.70
2019-04-06T11:29:05.535Z,0.80
2019-04-06T11:30:13.023Z,0.90
2019-04-06T11:31:05.380Z,0.80
2019-04-06T11:32:05.313Z,0.70
2019-04-06T11:33:05.280Z,0.70
2019-04-06T11:34:05.171Z,0.70
2019-04-06T11:35:05.115Z,0.70
2019-04-06T11:36:05.046Z,0.70
2019-04-06T11:37:04.981Z,1.00
2019-04-06T11:38:04.916Z,0.90
2019-04-06T11:39:04.833Z,0.80
2019-04-06T11:40:04.767Z,0.70
2019-04-06T11:41:04.707Z,0.90
2019-04-06T11:42:04.634Z,0.80
2019-04-06T11:43:04.577Z,0.90
2019-04-06T11:44:04.503Z,0.70
2019-04-06T11:45:04.420Z,0.80
2019-04-06T11:46:04.358Z,1.00
2019-04-06T11:47:04.517Z,0.90
2019-04-06T11:48:04.282Z,0.80
2019-04-06T11:49:04.426Z,0.80
2019-04-06T11:50:04.096Z,0.80
2019-04-06T11:51:04.011Z,0.70
2019-04-06T11:52:03.942Z,0.80
2019-04-06T11:53:03.872Z,0.90
2019-04-06T11:54:03.834Z,1.10
2019-04-06T11:55:03.789Z,0.90
2019-04-06T11:56:03.893Z,0.80
2019-04-06T11:57:03.612Z,0.70
2019-04-06T11:58:03.549Z,0.90
2019-04-06T11:59:03.656Z,0.80
2019-04-06T12:00:03.568Z,1.00
2019-04-06T12:01:03.340Z,0.70
2019-04-06T12:02:03.270Z,0.80
2019-04-06T12:03:03.412Z,0.90
2019-04-06T12:04:03.124Z,0.90
2019-04-06T12:05:03.047Z,0.80
2019-04-06T12:06:02.986Z,0.90
2019-04-06T12:07:03.284Z,0.90
2019-04-06T12:08:03.012Z,1.00
2019-04-06T12:09:02.810Z,0.90
2019-04-06T12:10:02.714Z,0.70
2019-04-06T12:11:03.015Z,0.90
2019-04-06T12:12:02.797Z,1.00
2019-04-06T12:13:02.517Z,1.00
2019-04-06T12:14:02.447Z,0.80
2019-04-06T12:15:02.700Z,0.70
2019-04-06T12:16:02.518Z,0.70
2019-04-06T12:17:02.308Z,0.90
2019-04-06T12:18:02.364Z,0.80
2019-04-06T12:19:02.109Z,0.90
2019-04-06T12:20:02.027Z,0.80
2019-04-06T12:21:01.956Z,1.00
2019-04-06T12:22:01.941Z,0.90
2019-04-06T12:23:02.011Z,0.80
2019-04-06T12:24:01.766Z,0.90
2019-04-06T12:25:01.701Z,1.10
2019-04-06T12:26:01.633Z,0.60
2019-04-06T12:27:01.574Z,0.50
2019-04-06T12:28:01.478Z,0.50
2019-04-06T12:29:01.411Z,0.70
2019-04-06T12:30:01.339Z,0.80
2019-04-06T12:31:01.555Z,0.80
2019-04-06T12:32:01.218Z,0.70
2019-04-06T12:33:01.134Z,0.70
2019-04-06T12:34:01.070Z,0.80
2019-04-06T12:35:01.013Z,0.60
2019-04-06T12:36:00.940Z,0.70
2019-04-06T12:37:00.868Z,0.60
2019-04-06T12:38:00.807Z,0.70
2019-04-06T12:39:00.723Z,0.70
2019-04-06T12:40:00.649Z,0.70
2019-04-06T12:41:00.802Z,0.70
2019-04-06T12:42:00.701Z,0.80
2019-04-06T12:43:00.455Z,0.80
2019-04-06T12:44:00.395Z,0.60
2019-04-06T12:45:00.325Z,0.70
2019-04-06T12:46:00.251Z,0.80
2019-04-06T12:47:00.182Z,0.80
2019-04-06T12:48:00.124Z,0.90
2019-04-06T12:49:00.057Z,1.30
2019-04-06T12:49:59.975Z,0.90
2019-04-06T12:50:59.896Z,0.90
2019-04-06T12:51:59.830Z,0.60
2019-04-06T12:52:59.763Z,0.60
2019-04-06T12:53:59.973Z,0.50
2019-04-06T12:54:59.644Z,0.50
2019-04-06T12:55:59.560Z,0.40
2019-04-06T12:56:59.493Z,0.60
2019-04-06T12:57:59.671Z,0.50
2019-04-06T12:58:59.652Z,0.70
2019-04-06T12:59:59.378Z,0.60
2019-04-06T13:00:59.359Z,0.70
2019-04-06T13:01:59.144Z,0.80
2019-04-06T13:02:59.081Z,0.80
2019-04-06T13:03:59.013Z,0.60
2019-04-06T13:04:58.928Z,0.60
2019-04-06T13:05:58.888Z,0.60
2019-04-06T13:06:59.020Z,0.80
2019-04-06T13:07:58.738Z,0.70
2019-04-06T13:08:58.668Z,0.80
2019-04-06T13:09:58.601Z,0.60
2019-04-06T13:10:58.517Z,0.50
2019-04-06T13:11:58.452Z,0.50
2019-04-06T13:12:58.489Z,0.80
2019-04-06T13:13:58.385Z,0.80
2019-04-06T13:14:58.246Z,0.70
2019-04-06T13:15:58.179Z,0.60
2019-04-06T13:16:58.110Z,0.80
2019-04-06T13:17:58.042Z,0.80